Time;durP1;ratioP1;P1;durP2;ratioP2;P2;SDS_P1;SDS_P2;PMS_P1;PMS_P2;Temp;Humidity;BMP_temperature;BMP_pressure;BME280_temperature;BME280_humidity;BME280_pressure;Samples;Min_cycle;Max_cycle;Signal;HPM_P1;HPM_P2
2021/10/14 00:00:54;;;;;;;2.40;0.90;;;;;;;;;;4951801;28;20045;-57
2021/10/14 00:03:20;;;;;;;2.28;0.90;;;;;;;;;;4949183;28;20058;-56
2021/10/14 00:05:46;;;;;;;6.43;0.73;;;;;;;;;;4950200;28;20063;-56
2021/10/14 00:08:12;;;;;;;1.80;0.60;;;;;;;;;;4949547;28;20110;-57
2021/10/14 00:10:37;;;;;;;1.98;0.70;;;;;;;;;;4949840;28;20071;-56
2021/10/14 00:13:04;;;;;;;2.15;0.80;;;;;;;;;;4963337;28;20835;-56
2021/10/14 00:15:29;;;;;;;6.63;0.90;;;;;;;;;;4965784;28;20621;-54
2021/10/14 00:17:55;;;;;;;3.05;1.00;;;;;;;;;;4950489;28;20047;-55
2021/10/14 00:20:21;;;;;;;2.40;0.85;;;;;;;;;;4950150;28;20046;-56
2021/10/14 00:22:47;;;;;;;1.92;0.70;;;;;;;;;;4950957;28;20071;-53
2021/10/14 00:25:13;;;;;;;1.98;0.80;;;;;;;;;;4951144;28;20134;-55
2021/10/14 00:27:39;;;;;;;2.30;0.70;;;;;;;;;;4949840;28;20043;-56
2021/10/14 00:30:05;;;;;;;2.53;0.93;;;;;;;;;;4948793;28;20042;-56
2021/10/14 00:32:30;;;;;;;2.05;0.60;;;;;;;;;;4948647;28;21126;-55
2021/10/14 00:34:56;;;;;;;3.28;1.00;;;;;;;;;;4951080;28;20050;-55
2021/10/14 00:37:22;;;;;;;4.40;1.08;;;;;;;;;;4950698;28;20053;-54
2021/10/14 00:39:48;;;;;;;1.77;0.70;;;;;;;;;;4949713;28;20074;-55
2021/10/14 00:42:14;;;;;;;2.80;0.70;;;;;;;;;;4951268;28;20947;-56
2021/10/14 00:44:47;;;;;;;3.05;1.08;;;;;;;;;;4950974;28;20122;-56
2021/10/14 00:47:16;;;;;;;2.97;0.82;;;;;;;;;;4949364;28;20892;-56
2021/10/14 00:49:42;;;;;;;4.68;0.98;;;;;;;;;;4948582;28;20038;-56
2021/10/14 00:52:08;;;;;;;2.28;0.90;;;;;;;;;;4949481;28;20042;-53
2021/10/14 00:54:34;;;;;;;3.30;0.90;;;;;;;;;;4949303;28;20035;-56
2021/10/14 00:56:59;;;;;;;2.75;0.80;;;;;;;;;;4948325;28;20050;-56
2021/10/14 00:59:26;;;;;;;1.90;0.68;;;;;;;;;;4949454;28;20042;-55
2021/10/14 01:01:52;;;;;;;3.28;0.88;;;;;;;;;;4951091;28;20078;-55
2021/10/14 01:04:18;;;;;;;5.32;0.80;;;;;;;;;;4949859;28;20130;-55
2021/10/14 01:06:44;;;;;;;2.42;0.80;;;;;;;;;;4950333;28;20174;-54
2021/10/14 01:09:09;;;;;;;2.28;0.80;;;;;;;;;;4950528;28;20046;-56
2021/10/14 01:11:35;;;;;;;2.50;0.90;;;;;;;;;;4948143;28;20102;-56
2021/10/14 01:14:01;;;;;;;2.50;0.82;;;;;;;;;;4950828;28;20093;-55
2021/10/14 01:16:27;;;;;;;2.70;0.77;;;;;;;;;;4952402;28;20346;-56
2021/10/14 01:18:53;;;;;;;2.13;0.75;;;;;;;;;;4953517;28;20078;-55
2021/10/14 01:21:19;;;;;;;2.40;0.80;;;;;;;;;;4953281;28;20109;-52
2021/10/14 01:23:45;;;;;;;1.45;0.50;;;;;;;;;;4955010;28;20051;-53
2021/10/14 01:26:11;;;;;;;4.15;1.00;;;;;;;;;;4956004;28;20038;-55
2021/10/14 01:28:37;;;;;;;2.50;0.80;;;;;;;;;;4954016;28;20127;-54
2021/10/14 01:31:02;;;;;;;2.50;0.90;;;;;;;;;;4955562;28;20038;-52
2021/10/14 01:33:29;;;;;;;2.25;0.70;;;;;;;;;;4952976;28;20073;-54
2021/10/14 01:35:54;;;;;;;5.70;1.20;;;;;;;;;;4953484;28;20034;-54
2021/10/14 01:38:20;;;;;;;1.17;0.55;;;;;;;;;;4953736;28;20039;-55
2021/10/14 01:40:46;;;;;;;3.00;0.70;;;;;;;;;;4960346;28;20042;-54
2021/10/14 01:43:13;;;;;;;2.15;0.70;;;;;;;;;;4975471;28;20595;-55
2021/10/14 01:45:39;;;;;;;2.40;0.73;;;;;;;;;;4974064;28;20499;-54
2021/10/14 01:48:05;;;;;;;2.30;0.70;;;;;;;;;;4972863;28;20158;-54
2021/10/14 01:50:30;;;;;;;1.27;0.60;;;;;;;;;;4970326;28;20498;-54
2021/10/14 01:52:56;;;;;;;2.25;0.73;;;;;;;;;;4959003;28;20077;-52
2021/10/14 01:55:22;;;;;;;2.55;0.77;;;;;;;;;;4955758;28;20042;-54
2021/10/14 01:57:48;;;;;;;2.08;0.70;;;;;;;;;;4952686;28;20051;-53
2021/10/14 02:00:14;;;;;;;1.55;0.60;;;;;;;;;;4952990;28;20045;-53
2021/10/14 02:02:39;;;;;;;1.88;0.68;;;;;;;;;;4952560;28;20707;-54
2021/10/14 02:05:06;;;;;;;2.28;0.70;;;;;;;;;;4954456;28;20098;-53
2021/10/14 02:07:32;;;;;;;3.22;0.75;;;;;;;;;;4952791;28;20467;-54
2021/10/14 02:09:58;;;;;;;2.50;0.73;;;;;;;;;;4953239;28;20146;-55
2021/10/14 02:12:25;;;;;;;2.10;0.70;;;;;;;;;;4951849;28;20031;-56
2021/10/14 02:14:51;;;;;;;1.80;0.60;;;;;;;;;;4953868;28;20055;-55
2021/10/14 02:17:17;;;;;;;2.20;0.77;;;;;;;;;;4951618;28;20082;-55
2021/10/14 02:19:43;;;;;;;5.72;0.70;;;;;;;;;;4958530;28;20166;-54
2021/10/14 02:22:09;;;;;;;3.30;0.80;;;;;;;;;;4961626;28;20452;-54
2021/10/14 02:24:35;;;;;;;6.07;0.60;;;;;;;;;;4955722;28;20669;-55
2021/10/14 02:27:00;;;;;;;1.98;0.52;;;;;;;;;;4952974;28;20039;-55
2021/10/14 02:29:26;;;;;;;5.88;0.70;;;;;;;;;;4951434;28;20159;-54
2021/10/14 02:31:54;;;;;;;2.85;0.90;;;;;;;;;;4952544;28;20035;-52
2021/10/14 02:34:20;;;;;;;1.70;0.60;;;;;;;;;;4953450;28;20058;-55
2021/10/14 02:36:46;;;;;;;2.67;0.88;;;;;;;;;;4967213;28;20078;-54
2021/10/14 02:39:12;;;;;;;2.78;0.80;;;;;;;;;;4960127;28;20043;-53
2021/10/14 02:41:38;;;;;;;2.13;0.80;;;;;;;;;;4953421;28;20097;-52
2021/10/14 02:44:04;;;;;;;2.60;0.80;;;;;;;;;;4955622;28;20050;-53
2021/10/14 02:46:30;;;;;;;1.88;0.70;;;;;;;;;;4951400;28;20073;-55
2021/10/14 02:48:56;;;;;;;1.73;0.70;;;;;;;;;;4954580;28;20504;-55
2021/10/14 02:51:22;;;;;;;2.58;0.90;;;;;;;;;;4953889;28;20051;-54
2021/10/14 02:53:47;;;;;;;2.50;0.82;;;;;;;;;;4955418;28;21722;-54
2021/10/14 02:56:13;;;;;;;3.78;0.80;;;;;;;;;;4954251;28;20078;-54
2021/10/14 02:58:39;;;;;;;2.33;0.80;;;;;;;;;;4953666;28;20038;-55
2021/10/14 03:01:05;;;;;;;2.20;0.90;;;;;;;;;;4954216;28;20150;-55
2021/10/14 03:03:34;;;;;;;2.88;0.80;;;;;;;;;;4953366;28;20058;-53
2021/10/14 03:06:00;;;;;;;3.50;1.05;;;;;;;;;;4953848;28;20522;-55
2021/10/14 03:08:25;;;;;;;3.05;0.90;;;;;;;;;;4953232;28;20058;-55
2021/10/14 03:10:51;;;;;;;3.90;0.90;;;;;;;;;;4955088;28;20047;-55
2021/10/14 03:13:17;;;;;;;1.85;0.60;;;;;;;;;;4951415;28;20479;-55
2021/10/14 03:15:43;;;;;;;2.10;0.70;;;;;;;;;;4950991;28;20061;-55
2021/10/14 03:18:09;;;;;;;3.55;0.88;;;;;;;;;;4953002;28;20055;-55
2021/10/14 03:20:35;;;;;;;2.65;1.00;;;;;;;;;;4954773;28;20070;-55
2021/10/14 03:23:01;;;;;;;1.65;0.55;;;;;;;;;;4953882;28;20042;-55
2021/10/14 03:25:27;;;;;;;1.92;0.63;;;;;;;;;;4952737;28;20564;-54
2021/10/14 03:27:52;;;;;;;2.70;0.95;;;;;;;;;;4948100;28;20149;-54
2021/10/14 03:30:18;;;;;;;2.47;0.85;;;;;;;;;;4964763;28;20062;-52
2021/10/14 03:32:44;;;;;;;1.80;0.75;;;;;;;;;;4953116;28;20652;-52
2021/10/14 03:35:10;;;;;;;2.45;0.85;;;;;;;;;;4951469;28;20077;-52
2021/10/14 03:37:36;;;;;;;1.75;0.70;;;;;;;;;;4966053;28;20053;-55
2021/10/14 03:40:02;;;;;;;2.55;0.80;;;;;;;;;;4952568;28;20365;-58
2021/10/14 03:42:28;;;;;;;1.60;0.60;;;;;;;;;;4950688;28;20039;-61
2021/10/14 03:44:54;;;;;;;2.03;0.63;;;;;;;;;;4953680;28;20058;-54
2021/10/14 03:47:20;;;;;;;2.75;0.80;;;;;;;;;;4952140;28;20451;-55
2021/10/14 03:49:46;;;;;;;2.10;0.77;;;;;;;;;;4951263;28;20072;-56
2021/10/14 03:52:12;;;;;;;2.55;0.70;;;;;;;;;;4953368;28;20122;-53
2021/10/14 03:54:38;;;;;;;2.00;0.82;;;;;;;;;;4951898;28;20047;-51
2021/10/14 03:57:03;;;;;;;2.15;0.77;;;;;;;;;;4951492;28;20050;-55
2021/10/14 03:59:29;;;;;;;2.40;0.70;;;;;;;;;;4949793;28;20043;-54
2021/10/14 04:01:55;;;;;;;1.98;0.63;;;;;;;;;;4950048;28;20043;-56
2021/10/14 04:04:23;;;;;;;2.03;0.70;;;;;;;;;;4956106;28;20039;-55
2021/10/14 04:06:48;;;;;;;2.15;0.70;;;;;;;;;;4948710;28;20047;-53
2021/10/14 04:09:14;;;;;;;2.50;0.98;;;;;;;;;;4947461;28;20056;-55
2021/10/14 04:11:40;;;;;;;2.10;0.70;;;;;;;;;;4947868;28;20038;-55
2021/10/14 04:14:06;;;;;;;2.60;0.80;;;;;;;;;;4963095;28;20086;-55
2021/10/14 04:16:32;;;;;;;1.90;0.75;;;;;;;;;;4949097;28;20160;-55
2021/10/14 04:18:58;;;;;;;2.97;0.70;;;;;;;;;;4948565;28;20675;-53
2021/10/14 04:21:25;;;;;;;2.38;0.80;;;;;;;;;;4947936;28;20039;-53
2021/10/14 04:23:51;;;;;;;3.10;0.93;;;;;;;;;;4943672;28;20057;-54
2021/10/14 04:26:17;;;;;;;2.53;0.80;;;;;;;;;;4960280;28;20051;-54
2021/10/14 04:28:43;;;;;;;2.40;0.80;;;;;;;;;;4950376;28;20039;-55
2021/10/14 04:31:09;;;;;;;2.30;0.80;;;;;;;;;;4950671;28;20053;-54
2021/10/14 04:33:35;;;;;;;2.67;0.90;;;;;;;;;;4951645;28;20043;-55
2021/10/14 04:36:01;;;;;;;2.00;0.60;;;;;;;;;;4950921;28;20035;-54
2021/10/14 04:38:27;;;;;;;3.63;0.80;;;;;;;;;;4948571;28;20464;-52
2021/10/14 04:40:53;;;;;;;2.58;0.95;;;;;;;;;;4949541;28;20122;-52
2021/10/14 04:43:19;;;;;;;1.92;0.65;;;;;;;;;;4962323;28;20046;-58
2021/10/14 04:45:45;;;;;;;2.95;0.95;;;;;;;;;;4948080;28;20266;-55
2021/10/14 04:48:11;;;;;;;5.50;1.08;;;;;;;;;;4961710;28;20519;-55
2021/10/14 04:50:36;;;;;;;5.05;0.80;;;;;;;;;;4971148;28;20321;-53
2021/10/14 04:53:02;;;;;;;3.22;0.98;;;;;;;;;;4970918;28;20042;-54
2021/10/14 04:55:28;;;;;;;2.67;0.85;;;;;;;;;;4953595;28;20173;-52
2021/10/14 04:57:54;;;;;;;2.50;0.80;;;;;;;;;;4952467;28;20117;-55
2021/10/14 05:00:20;;;;;;;2.67;0.80;;;;;;;;;;4951349;28;20039;-54
2021/10/14 05:02:46;;;;;;;3.15;1.33;;;;;;;;;;4951925;28;20055;-55
2021/10/14 05:05:12;;;;;;;2.65;1.00;;;;;;;;;;4953113;28;20049;-55
2021/10/14 05:07:37;;;;;;;3.58;1.20;;;;;;;;;;4951191;28;20043;-54
2021/10/14 05:10:04;;;;;;;4.75;1.20;;;;;;;;;;4952188;28;20063;-55
2021/10/14 05:12:29;;;;;;;3.20;1.15;;;;;;;;;;4951410;28;20046;-54
2021/10/14 05:14:55;;;;;;;3.38;1.27;;;;;;;;;;4951035;28;20043;-55
2021/10/14 05:17:21;;;;;;;3.10;1.30;;;;;;;;;;4951125;28;20109;-56
2021/10/14 05:19:47;;;;;;;2.38;1.10;;;;;;;;;;4952685;28;20472;-52
2021/10/14 05:22:13;;;;;;;3.35;1.45;;;;;;;;;;4952884;28;20646;-52
2021/10/14 05:24:38;;;;;;;3.33;1.30;;;;;;;;;;4971646;28;20047;-52
2021/10/14 05:27:04;;;;;;;3.08;1.05;;;;;;;;;;4957743;28;20552;-54
2021/10/14 05:29:30;;;;;;;4.40;1.38;;;;;;;;;;4966600;28;20105;-54
2021/10/14 05:31:56;;;;;;;2.92;1.20;;;;;;;;;;4952510;28;20138;-54
2021/10/14 05:34:22;;;;;;;2.97;1.27;;;;;;;;;;4959447;28;20205;-51
2021/10/14 05:36:48;;;;;;;3.83;1.30;;;;;;;;;;4954951;28;20151;-54
2021/10/14 05:39:13;;;;;;;3.20;1.17;;;;;;;;;;4950302;28;20043;-55
2021/10/14 05:41:39;;;;;;;3.55;1.60;;;;;;;;;;4956056;28;20039;-56
2021/10/14 05:44:07;;;;;;;4.55;1.40;;;;;;;;;;4954514;28;20050;-55
2021/10/14 05:46:32;;;;;;;2.92;1.30;;;;;;;;;;4952925;28;20035;-54
2021/10/14 05:48:58;;;;;;;3.75;1.48;;;;;;;;;;4952554;28;20088;-54
2021/10/14 05:51:24;;;;;;;2.97;1.30;;;;;;;;;;4962910;28;20042;-55
2021/10/14 05:53:50;;;;;;;4.03;1.50;;;;;;;;;;4973911;28;20113;-54
2021/10/14 05:56:16;;;;;;;3.15;1.48;;;;;;;;;;4988433;28;20074;-53
2021/10/14 05:58:41;;;;;;;4.72;1.45;;;;;;;;;;4960500;28;20043;-54
2021/10/14 06:01:07;;;;;;;3.97;1.45;;;;;;;;;;4953975;28;20046;-55
2021/10/14 06:03:35;;;;;;;3.58;1.50;;;;;;;;;;4951826;28;20053;-53
2021/10/14 06:06:01;;;;;;;3.80;1.52;;;;;;;;;;4950484;28;20093;-54
2021/10/14 06:08:27;;;;;;;4.18;1.77;;;;;;;;;;4948749;28;20055;-53
2021/10/14 06:10:53;;;;;;;3.72;1.52;;;;;;;;;;4952858;28;20042;-54
2021/10/14 06:13:20;;;;;;;4.35;1.80;;;;;;;;;;4952675;28;20058;-54
2021/10/14 06:15:46;;;;;;;4.05;1.55;;;;;;;;;;4952153;28;20050;-54
2021/10/14 06:18:12;;;;;;;4.18;1.90;;;;;;;;;;4950854;28;20146;-55
2021/10/14 06:20:38;;;;;;;3.80;1.90;;;;;;;;;;4952197;28;20053;-53
2021/10/14 06:23:06;;;;;;;3.50;1.73;;;;;;;;;;4951130;28;20035;-53
2021/10/14 06:25:32;;;;;;;6.43;2.30;;;;;;;;;;4952566;28;20659;-55
2021/10/14 06:27:58;;;;;;;5.03;2.17;;;;;;;;;;4950959;28;20066;-55
2021/10/14 06:30:23;;;;;;;5.55;2.22;;;;;;;;;;4980381;28;20460;-55
2021/10/14 06:32:49;;;;;;;5.07;2.47;;;;;;;;;;4952716;28;20547;-52
2021/10/14 06:35:15;;;;;;;4.13;2.03;;;;;;;;;;4961320;28;20070;-53
2021/10/14 06:37:41;;;;;;;4.43;2.15;;;;;;;;;;4951394;28;20047;-55
2021/10/14 06:40:07;;;;;;;5.15;1.95;;;;;;;;;;4951647;28;20554;-54
2021/10/14 06:42:33;;;;;;;5.07;2.40;;;;;;;;;;4951863;28;20062;-53
2021/10/14 06:44:59;;;;;;;4.38;2.47;;;;;;;;;;4953865;28;20142;-52
2021/10/14 06:47:25;;;;;;;5.78;2.58;;;;;;;;;;4959479;28;20046;-56
2021/10/14 06:49:51;;;;;;;6.63;2.67;;;;;;;;;;4955058;28;20038;-52
2021/10/14 06:52:17;;;;;;;12.38;3.03;;;;;;;;;;4957035;28;20075;-55
2021/10/14 06:54:43;;;;;;;5.43;2.70;;;;;;;;;;4956627;28;20218;-53
2021/10/14 06:57:09;;;;;;;5.13;2.53;;;;;;;;;;4953941;28;20054;-53
2021/10/14 06:59:35;;;;;;;4.93;2.75;;;;;;;;;;4950928;28;20047;-54
2021/10/14 07:02:01;;;;;;;5.15;3.00;;;;;;;;;;4952725;28;20040;-55
2021/10/14 07:04:26;;;;;;;6.28;2.60;;;;;;;;;;4951081;28;20274;-54
2021/10/14 07:06:53;;;;;;;5.40;2.78;;;;;;;;;;4952698;28;20035;-55
2021/10/14 07:09:18;;;;;;;6.00;2.60;;;;;;;;;;4951972;28;20061;-55
2021/10/14 07:11:52;;;;;;;5.05;2.88;;;;;;;;;;4951119;28;20043;-55
2021/10/14 07:14:19;;;;;;;5.68;3.08;;;;;;;;;;4951836;28;20042;-55
2021/10/14 07:16:45;;;;;;;5.00;2.88;;;;;;;;;;4952340;28;20075;-56
2021/10/14 07:19:11;;;;;;;5.93;3.08;;;;;;;;;;4951319;28;20063;-55
2021/10/14 07:21:37;;;;;;;5.40;3.17;;;;;;;;;;4952608;28;20128;-55
2021/10/14 07:24:03;;;;;;;6.05;3.55;;;;;;;;;;4951696;28;20125;-53
2021/10/14 07:26:29;;;;;;;5.95;3.30;;;;;;;;;;4961053;28;20042;-55
2021/10/14 07:29:14;;;;;;;5.07;2.90;;;;;;;;;;4983154;28;20157;-56
2021/10/14 07:31:40;;;;;;;5.03;3.15;;;;;;;;;;4987088;28;20042;-54
2021/10/14 07:34:06;;;;;;;6.15;3.25;;;;;;;;;;4986922;28;20034;-53
2021/10/14 07:36:32;;;;;;;7.35;3.58;;;;;;;;;;4985530;28;20122;-54
2021/10/14 07:38:58;;;;;;;6.30;3.40;;;;;;;;;;4987081;28;20049;-52
2021/10/14 07:41:24;;;;;;;8.70;3.65;;;;;;;;;;4986570;28;20057;-55
2021/10/14 07:43:50;;;;;;;7.93;3.65;;;;;;;;;;4969667;28;20041;-56
2021/10/14 07:46:16;;;;;;;8.25;3.95;;;;;;;;;;4987658;28;20046;-55
2021/10/14 07:48:42;;;;;;;6.07;3.47;;;;;;;;;;4986628;28;20038;-54
2021/10/14 07:51:08;;;;;;;6.45;3.58;;;;;;;;;;4988531;28;20411;-55
2021/10/14 07:53:34;;;;;;;9.35;3.90;;;;;;;;;;4986999;28;20045;-54
2021/10/14 07:56:00;;;;;;;8.25;4.13;;;;;;;;;;4987101;28;20541;-55
2021/10/14 07:58:26;;;;;;;8.07;4.13;;;;;;;;;;4985575;28;20074;-55
2021/10/14 08:00:52;;;;;;;6.32;3.55;;;;;;;;;;4985480;28;20122;-55
2021/10/14 08:03:17;;;;;;;8.05;4.35;;;;;;;;;;4986278;28;20038;-55
2021/10/14 08:05:44;;;;;;;9.02;4.60;;;;;;;;;;4984134;28;20069;-53
2021/10/14 08:08:09;;;;;;;8.20;4.32;;;;;;;;;;4964496;28;20066;-54
2021/10/14 08:10:36;;;;;;;6.60;4.13;;;;;;;;;;4965790;28;20069;-54
2021/10/14 08:13:02;;;;;;;7.32;4.15;;;;;;;;;;4949778;28;20424;-56
2021/10/14 08:15:28;;;;;;;6.82;4.07;;;;;;;;;;4949879;28;20067;-55
2021/10/14 08:17:54;;;;;;;8.45;4.63;;;;;;;;;;4964096;28;20058;-52
2021/10/14 08:20:20;;;;;;;6.32;4.40;;;;;;;;;;4948210;28;20043;-55
2021/10/14 08:22:46;;;;;;;8.02;4.22;;;;;;;;;;4953021;28;20545;-55
2021/10/14 08:25:13;;;;;;;9.60;4.22;;;;;;;;;;4971473;28;20089;-53
2021/10/14 08:27:39;;;;;;;6.78;4.32;;;;;;;;;;4968184;28;20053;-54
2021/10/14 08:30:06;;;;;;;8.90;5.25;;;;;;;;;;4968263;28;20349;-55
2021/10/14 08:32:32;;;;;;;8.02;4.60;;;;;;;;;;4952701;28;20061;-55
2021/10/14 08:34:58;;;;;;;9.07;4.47;;;;;;;;;;4953612;28;20395;-53
2021/10/14 08:37:23;;;;;;;7.32;4.28;;;;;;;;;;4953522;28;20487;-53
2021/10/14 08:39:50;;;;;;;9.52;4.90;;;;;;;;;;4953219;28;20035;-55
2021/10/14 08:42:16;;;;;;;8.13;4.88;;;;;;;;;;4954212;28;20043;-52
2021/10/14 08:44:42;;;;;;;8.15;4.80;;;;;;;;;;4971632;28;20054;-52
2021/10/14 08:47:11;;;;;;;9.55;5.47;;;;;;;;;;4955728;28;20046;-53
2021/10/14 08:49:37;;;;;;;8.88;5.50;;;;;;;;;;4951746;28;20082;-55
2021/10/14 08:52:03;;;;;;;8.15;5.00;;;;;;;;;;4953050;28;20056;-55
2021/10/14 08:54:28;;;;;;;8.23;5.30;;;;;;;;;;4967314;28;20046;-55
2021/10/14 08:56:54;;;;;;;9.73;5.20;;;;;;;;;;4953463;28;20062;-55
2021/10/14 08:59:20;;;;;;;8.55;5.25;;;;;;;;;;4959764;28;20069;-54
2021/10/14 09:02:04;;;;;;;9.18;5.18;;;;;;;;;;4970759;28;20038;-53
2021/10/14 09:04:32;;;;;;;10.38;5.93;;;;;;;;;;4961961;28;20054;-54
2021/10/14 09:07:08;;;;;;;8.27;5.20;;;;;;;;;;4953159;28;20042;-55
2021/10/14 09:09:37;;;;;;;8.98;5.72;;;;;;;;;;4886575;28;1995313;-55
2021/10/14 09:12:04;;;;;;;8.52;5.30;;;;;;;;;;4953886;28;20504;-53
2021/10/14 09:14:30;;;;;;;8.80;5.32;;;;;;;;;;4953631;28;20764;-54
2021/10/14 09:16:56;;;;;;;9.30;5.95;;;;;;;;;;4954236;28;20062;-54
2021/10/14 09:19:22;;;;;;;10.00;5.82;;;;;;;;;;4953900;28;20035;-53
2021/10/14 09:22:01;;;;;;;10.55;6.45;;;;;;;;;;4952840;28;20046;-53
2021/10/14 09:24:35;;;;;;;10.35;6.10;;;;;;;;;;4952960;28;20073;-55
2021/10/14 09:27:11;;;;;;;11.77;6.07;;;;;;;;;;4954405;28;20043;-53
2021/10/14 09:29:38;;;;;;;10.82;6.38;;;;;;;;;;4960794;28;20047;-52
2021/10/14 09:32:05;;;;;;;8.93;6.32;;;;;;;;;;4953427;28;20887;-55
2021/10/14 09:34:39;;;;;;;8.52;5.53;;;;;;;;;;4953375;28;20097;-55
2021/10/14 09:37:06;;;;;;;10.50;6.03;;;;;;;;;;4954266;28;20486;-55
2021/10/14 09:39:32;;;;;;;10.05;5.60;;;;;;;;;;4956971;28;20057;-55
2021/10/14 09:41:58;;;;;;;11.98;6.85;;;;;;;;;;4973356;28;20041;-55
2021/10/14 09:44:25;;;;;;;10.98;6.53;;;;;;;;;;4971969;28;20046;-55
2021/10/14 09:46:52;;;;;;;10.45;6.45;;;;;;;;;;4974159;28;20061;-54
2021/10/14 09:49:29;;;;;;;9.38;6.25;;;;;;;;;;4971097;28;20077;-55
2021/10/14 09:51:57;;;;;;;9.60;6.07;;;;;;;;;;4960447;28;20043;-54
2021/10/14 09:54:23;;;;;;;10.50;5.88;;;;;;;;;;4954416;28;20074;-54
2021/10/14 09:56:49;;;;;;;10.40;5.45;;;;;;;;;;4954551;28;20503;-54
2021/10/14 09:59:16;;;;;;;10.45;5.93;;;;;;;;;;4952536;28;20126;-54
2021/10/14 10:01:42;;;;;;;9.32;5.18;;;;;;;;;;4973254;28;20038;-54
2021/10/14 10:04:08;;;;;;;11.07;6.22;;;;;;;;;;4973835;28;20034;-55
2021/10/14 10:06:35;;;;;;;8.23;4.80;;;;;;;;;;4972261;28;20512;-55
2021/10/14 10:09:09;;;;;;;9.10;6.00;;;;;;;;;;4959115;28;20051;-54
2021/10/14 10:11:40;;;;;;;7.72;5.32;;;;;;;;;;4952509;28;20071;-55
2021/10/14 10:14:06;;;;;;;10.30;5.70;;;;;;;;;;4952613;28;20408;-54
2021/10/14 10:16:32;;;;;;;9.05;5.60;;;;;;;;;;4952078;28;20054;-56
2021/10/14 10:19:01;;;;;;;12.23;6.30;;;;;;;;;;4954273;28;20678;-55
2021/10/14 10:21:33;;;;;;;8.13;4.82;;;;;;;;;;4952899;28;20426;-55
2021/10/14 10:24:05;;;;;;;10.90;6.22;;;;;;;;;;4954081;28;20039;-56
2021/10/14 10:26:34;;;;;;;13.68;5.50;;;;;;;;;;4962841;28;20100;-55
2021/10/14 10:29:01;;;;;;;11.75;5.55;;;;;;;;;;4971463;28;20092;-55
2021/10/14 10:31:46;;;;;;;11.18;5.70;;;;;;;;;;4977306;28;20362;-56
2021/10/14 10:37:10;;;;;;;11.05;5.15;;;;;;;;;;4970369;28;20047;-54
2021/10/14 10:39:55;;;;;;;11.80;6.30;;;;;;;;;;4972978;28;20396;-54
2021/10/14 10:42:29;;;;;;;11.05;5.70;;;;;;;;;;4973221;28;20034;-55
2021/10/14 10:45:05;;;;;;;13.27;6.03;;;;;;;;;;4968015;28;20069;-55
2021/10/14 10:47:49;;;;;;;12.57;6.68;;;;;;;;;;4951460;28;20042;-54
2021/10/14 10:50:17;;;;;;;10.02;5.32;;;;;;;;;;4954729;28;20043;-56
2021/10/14 10:52:44;;;;;;;11.57;5.22;;;;;;;;;;4976119;28;20045;-54
2021/10/14 10:55:22;;;;;;;13.30;6.25;;;;;;;;;;4976888;28;20042;-53
2021/10/14 10:57:51;;;;;;;10.15;5.60;;;;;;;;;;4955831;28;20428;-55
2021/10/14 11:00:18;;;;;;;10.63;6.10;;;;;;;;;;4956738;28;20043;-55
2021/10/14 11:02:44;;;;;;;9.63;5.72;;;;;;;;;;4972988;28;20046;-55
2021/10/14 11:05:11;;;;;;;11.65;5.78;;;;;;;;;;4959652;28;20036;-56
2021/10/14 11:07:37;;;;;;;10.70;5.85;;;;;;;;;;4952157;28;20054;-54
2021/10/14 11:10:04;;;;;;;9.05;5.13;;;;;;;;;;4961861;28;20053;-55
2021/10/14 11:12:30;;;;;;;12.50;6.30;;;;;;;;;;4951591;28;20055;-55
2021/10/14 11:14:55;;;;;;;13.88;5.78;;;;;;;;;;4951996;28;20055;-56
2021/10/14 11:17:25;;;;;;;12.25;5.82;;;;;;;;;;4951429;28;20043;-54
2021/10/14 11:20:03;;;;;;;11.82;5.20;;;;;;;;;;4951996;28;20118;-52
2021/10/14 11:22:29;;;;;;;10.35;5.13;;;;;;;;;;4951793;28;20039;-55
2021/10/14 11:24:59;;;;;;;7.75;3.92;;;;;;;;;;4951474;28;20051;-56
2021/10/14 11:27:25;;;;;;;8.18;3.40;;;;;;;;;;4951621;28;20047;-57
2021/10/14 11:29:52;;;;;;;7.57;3.88;;;;;;;;;;4951119;28;20344;-54
2021/10/14 11:32:23;;;;;;;7.25;3.38;;;;;;;;;;4951139;28;20043;-53
2021/10/14 11:34:49;;;;;;;5.80;2.90;;;;;;;;;;4952299;28;20039;-55
2021/10/14 11:37:15;;;;;;;5.80;3.05;;;;;;;;;;4952414;28;20058;-55
2021/10/14 11:39:47;;;;;;;6.25;3.20;;;;;;;;;;4947946;28;20035;-55
2021/10/14 11:42:20;;;;;;;5.15;2.67;;;;;;;;;;4951106;28;20583;-55
2021/10/14 11:44:49;;;;;;;6.57;2.92;;;;;;;;;;4948334;28;20139;-56
2021/10/14 11:47:16;;;;;;;4.40;2.65;;;;;;;;;;4951363;28;20067;-55
2021/10/14 11:49:42;;;;;;;5.60;2.67;;;;;;;;;;4969392;28;21164;-55
2021/10/14 11:52:09;;;;;;;5.75;2.83;;;;;;;;;;4969162;28;20038;-54
2021/10/14 11:54:36;;;;;;;7.22;3.25;;;;;;;;;;4969018;28;20050;-55
2021/10/14 11:57:02;;;;;;;5.88;3.00;;;;;;;;;;4970051;28;20038;-54
2021/10/14 11:59:29;;;;;;;5.45;2.50;;;;;;;;;;4968734;28;20039;-55
2021/10/14 12:01:57;;;;;;;4.93;2.78;;;;;;;;;;4970286;28;20050;-54
2021/10/14 12:04:25;;;;;;;9.15;4.57;;;;;;;;;;4971243;28;20038;-55
2021/10/14 12:06:51;;;;;;;4.70;2.55;;;;;;;;;;4971575;28;20046;-53
2021/10/14 12:09:18;;;;;;;6.28;2.90;;;;;;;;;;4968873;28;20039;-53
2021/10/14 12:11:44;;;;;;;7.18;2.85;;;;;;;;;;4971792;28;20121;-52
2021/10/14 12:14:10;;;;;;;5.93;2.90;;;;;;;;;;4956118;28;20181;-52
2021/10/14 12:16:36;;;;;;;5.05;2.83;;;;;;;;;;4952097;28;20043;-55
2021/10/14 12:19:12;;;;;;;6.35;3.30;;;;;;;;;;4952904;28;20034;-53
2021/10/14 12:21:43;;;;;;;6.00;3.00;;;;;;;;;;4952286;28;20037;-52
2021/10/14 12:24:12;;;;;;;4.95;2.65;;;;;;;;;;4950601;28;20047;-55
2021/10/14 12:26:37;;;;;;;5.15;2.50;;;;;;;;;;4951069;28;20054;-55
2021/10/14 12:29:23;;;;;;;6.32;2.88;;;;;;;;;;4964623;28;20385;-53
2021/10/14 12:32:01;;;;;;;7.18;2.70;;;;;;;;;;4969277;28;21026;-55
2021/10/14 12:34:37;;;;;;;6.53;2.67;;;;;;;;;;4969570;28;20101;-52
2021/10/14 12:37:06;;;;;;;4.88;2.58;;;;;;;;;;4970581;28;20042;-52
2021/10/14 12:39:32;;;;;;;5.07;2.67;;;;;;;;;;4968359;28;21126;-51
2021/10/14 12:41:58;;;;;;;6.30;3.17;;;;;;;;;;4971135;28;20642;-54
2021/10/14 12:44:33;;;;;;;8.13;2.80;;;;;;;;;;4969800;28;20042;-55
2021/10/14 12:47:05;;;;;;;7.28;2.47;;;;;;;;;;4971492;28;20062;-55
2021/10/14 12:49:40;;;;;;;6.60;3.13;;;;;;;;;;4968643;28;20077;-55
2021/10/14 12:52:17;;;;;;;6.70;2.67;;;;;;;;;;4971150;28;20082;-53
2021/10/14 12:54:43;;;;;;;8.93;3.53;;;;;;;;;;4969697;28;20606;-54
2021/10/14 12:57:09;;;;;;;5.38;3.10;;;;;;;;;;4969048;28;20045;-53
2021/10/14 12:59:38;;;;;;;7.80;3.08;;;;;;;;;;4968387;28;20066;-52
2021/10/14 13:02:04;;;;;;;6.38;3.22;;;;;;;;;;4970309;28;20045;-52
2021/10/14 13:04:31;;;;;;;5.05;2.78;;;;;;;;;;4969718;28;20158;-55
2021/10/14 13:06:57;;;;;;;6.55;3.67;;;;;;;;;;4970491;28;20043;-54
2021/10/14 13:09:24;;;;;;;6.10;2.80;;;;;;;;;;4952206;28;20043;-54
2021/10/14 13:11:50;;;;;;;5.82;3.08;;;;;;;;;;4952785;28;20070;-54
2021/10/14 13:14:16;;;;;;;7.80;2.85;;;;;;;;;;4954590;28;20048;-53
2021/10/14 13:16:42;;;;;;;5.95;2.40;;;;;;;;;;4955211;28;20058;-51
2021/10/14 13:19:09;;;;;;;15.63;2.50;;;;;;;;;;4954116;28;20034;-51
2021/10/14 13:21:35;;;;;;;6.38;2.33;;;;;;;;;;4954025;28;20039;-52
2021/10/14 13:24:01;;;;;;;3.85;2.05;;;;;;;;;;4953878;28;20090;-51
2021/10/14 13:26:27;;;;;;;4.10;2.00;;;;;;;;;;4954131;28;20555;-53
2021/10/14 13:28:53;;;;;;;6.00;2.20;;;;;;;;;;4954927;28;20054;-51
2021/10/14 13:31:20;;;;;;;6.90;2.60;;;;;;;;;;4955722;28;20073;-51
2021/10/14 13:33:46;;;;;;;3.25;1.58;;;;;;;;;;4957029;28;20043;-53
2021/10/14 13:36:17;;;;;;;12.30;2.15;;;;;;;;;;4954483;28;20500;-51
2021/10/14 13:38:45;;;;;;;4.25;1.50;;;;;;;;;;4972249;28;20078;-51
2021/10/14 13:41:18;;;;;;;4.55;2.03;;;;;;;;;;4969675;28;20094;-53
2021/10/14 13:43:47;;;;;;;4.53;1.98;;;;;;;;;;4964525;28;20043;-52
2021/10/14 13:46:13;;;;;;;4.50;1.83;;;;;;;;;;4956488;28;20038;-54
2021/10/14 13:48:39;;;;;;;4.40;1.88;;;;;;;;;;4953302;28;20639;-51
2021/10/14 13:51:05;;;;;;;8.77;2.60;;;;;;;;;;4954850;28;20043;-51
2021/10/14 13:53:31;;;;;;;5.60;2.50;;;;;;;;;;4953411;28;20042;-53
2021/10/14 13:55:57;;;;;;;7.30;2.40;;;;;;;;;;4953581;28;20046;-54
2021/10/14 13:58:22;;;;;;;4.88;2.30;;;;;;;;;;4953438;28;20070;-54
2021/10/14 14:00:48;;;;;;;5.88;1.98;;;;;;;;;;4954864;28;20047;-52
2021/10/14 14:03:18;;;;;;;6.55;2.22;;;;;;;;;;4954045;28;20045;-52
2021/10/14 14:05:46;;;;;;;3.92;1.65;;;;;;;;;;4986681;28;20049;-53
2021/10/14 14:08:12;;;;;;;6.85;2.17;;;;;;;;;;4971264;28;20097;-54
2021/10/14 14:10:38;;;;;;;7.07;1.88;;;;;;;;;;4969881;28;20126;-52
2021/10/14 14:13:04;;;;;;;6.28;2.15;;;;;;;;;;4953898;28;20046;-51
2021/10/14 14:15:30;;;;;;;7.00;2.65;;;;;;;;;;4953175;28;20554;-51
2021/10/14 14:17:57;;;;;;;5.47;2.35;;;;;;;;;;4951589;28;20047;-53
2021/10/14 14:20:23;;;;;;;4.80;2.25;;;;;;;;;;4951650;28;20067;-53
2021/10/14 14:22:49;;;;;;;15.85;2.75;;;;;;;;;;4951173;28;20049;-50
2021/10/14 14:25:15;;;;;;;6.82;2.53;;;;;;;;;;4953100;28;20499;-54
2021/10/14 14:27:41;;;;;;;5.90;2.47;;;;;;;;;;4950897;28;20053;-51
2021/10/14 14:30:07;;;;;;;7.40;2.45;;;;;;;;;;4953275;28;20146;-55
2021/10/14 14:32:33;;;;;;;8.13;2.40;;;;;;;;;;4954494;28;20476;-51
2021/10/14 14:34:59;;;;;;;5.90;2.58;;;;;;;;;;4967482;28;20039;-52
2021/10/14 14:37:25;;;;;;;3.38;1.73;;;;;;;;;;4951687;28;20551;-53
2021/10/14 14:39:51;;;;;;;7.55;2.33;;;;;;;;;;4953231;28;20038;-54
2021/10/14 14:42:17;;;;;;;3.70;1.85;;;;;;;;;;4951686;28;21956;-52